sensor_id;sensor_type;location;lat;lon;timestamp;pressure;altitude;pressure_sealevel;temperature;humidity
4024;BME280;2026;51.002;13.668;2023-03-21T00:00:07;99076.91;;;9.63;97.30
4024;BME280;2026;51.002;13.668;2023-03-21T00:05:11;99084.13;;;9.75;96.32
4024;BME280;2026;51.002;13.668;2023-03-21T00:10:17;99076.91;;;9.63;96.43
4024;BME280;2026;51.002;13.668;2023-03-21T00:15:41;99079.53;;;9.63;96.69
4024;BME280;2026;51.002;13.668;2023-03-21T00:21:13;99089.19;;;9.70;96.15
4024;BME280;2026;51.002;13.668;2023-03-21T00:26:37;99083.75;;;9.64;96.13
4024;BME280;2026;51.002;13.668;2023-03-21T00:31:41;99080.53;;;9.62;96.03
4024;BME280;2026;51.002;13.668;2023-03-21T00:36:44;99090.00;;;9.63;95.93
4024;BME280;2026;51.002;13.668;2023-03-21T00:41:47;99095.03;;;9.65;96.02
4024;BME280;2026;51.002;13.668;2023-03-21T00:46:52;99082.34;;;9.55;96.43
4024;BME280;2026;51.002;13.668;2023-03-21T00:52:09;99085.16;;;9.67;95.52
4024;BME280;2026;51.002;13.668;2023-03-21T00:57:25;99072.88;;;9.68;95.33
4024;BME280;2026;51.002;13.668;2023-03-21T01:02:40;99081.13;;;9.31;97.66
4024;BME280;2026;51.002;13.668;2023-03-21T01:08:07;99089.00;;;8.97;100.00
4024;BME280;2026;51.002;13.668;2023-03-21T01:13:27;99093.16;;;8.71;100.00
4024;BME280;2026;51.002;13.668;2023-03-21T01:18:32;99095.19;;;8.76;100.00
4024;BME280;2026;51.002;13.668;2023-03-21T01:23:36;99090.19;;;8.88;100.00
4024;BME280;2026;51.002;13.668;2023-03-21T01:28:41;99091.81;;;9.02;100.00
4024;BME280;2026;51.002;13.668;2023-03-21T01:33:46;99093.03;;;9.13;100.00
4024;BME280;2026;51.002;13.668;2023-03-21T01:38:50;99097.44;;;9.19;100.00
4024;BME280;2026;51.002;13.668;2023-03-21T01:43:54;99099.06;;;9.27;99.59
4024;BME280;2026;51.002;13.668;2023-03-21T01:49:08;99093.81;;;9.27;98.19
4024;BME280;2026;51.002;13.668;2023-03-21T01:54:19;99093.03;;;9.27;97.07
4024;BME280;2026;51.002;13.668;2023-03-21T01:59:29;99091.41;;;9.19;97.36
4024;BME280;2026;51.002;13.668;2023-03-21T02:05:08;99075.50;;;9.20;92.79
4024;BME280;2026;51.002;13.668;2023-03-21T02:10:12;99076.94;;;9.23;92.05
4024;BME280;2026;51.002;13.668;2023-03-21T02:15:22;99065.25;;;9.12;91.56
4024;BME280;2026;51.002;13.668;2023-03-21T02:26:57;99072.28;;;9.05;88.75
4024;BME280;2026;51.002;13.668;2023-03-21T02:32:19;99064.25;;;8.93;88.76
4024;BME280;2026;51.002;13.668;2023-03-21T02:37:44;99071.47;;;8.84;89.34
4024;BME280;2026;51.002;13.668;2023-03-21T02:43:05;99065.63;;;8.82;88.58
4024;BME280;2026;51.002;13.668;2023-03-21T02:48:25;99064.03;;;8.74;89.36
4024;BME280;2026;51.002;13.668;2023-03-21T02:53:55;99070.00;;;8.48;89.95
4024;BME280;2026;51.002;13.668;2023-03-21T02:59:22;99074.22;;;8.49;90.79
4024;BME280;2026;51.002;13.668;2023-03-21T03:04:28;99070.59;;;8.43;91.46
4024;BME280;2026;51.002;13.668;2023-03-21T03:09:41;99063.31;;;8.32;91.76
4024;BME280;2026;51.002;13.668;2023-03-21T03:14:52;99061.16;;;8.49;92.13
4024;BME280;2026;51.002;13.668;2023-03-21T03:20:19;99045.13;;;8.59;90.89
4024;BME280;2026;51.002;13.668;2023-03-21T03:25:31;99043.69;;;8.63;91.04
4024;BME280;2026;51.002;13.668;2023-03-21T03:30:48;99049.34;;;8.60;91.09
4024;BME280;2026;51.002;13.668;2023-03-21T03:36:23;99051.13;;;8.52;91.92
4024;BME280;2026;51.002;13.668;2023-03-21T03:41:44;99059.97;;;8.65;91.62
4024;BME280;2026;51.002;13.668;2023-03-21T03:47:15;99062.59;;;8.65;91.21
4024;BME280;2026;51.002;13.668;2023-03-21T03:52:37;99058.31;;;8.44;92.73
4024;BME280;2026;51.002;13.668;2023-03-21T03:57:58;99064.72;;;8.27;93.51
4024;BME280;2026;51.002;13.668;2023-03-21T04:03:01;99055.84;;;8.22;94.06
4024;BME280;2026;51.002;13.668;2023-03-21T04:08:04;99058.97;;;7.97;95.20
4024;BME280;2026;51.002;13.668;2023-03-21T04:13:16;99061.84;;;8.09;93.47
4024;BME280;2026;51.002;13.668;2023-03-21T04:18:37;99064.28;;;8.17;93.23
4024;BME280;2026;51.002;13.668;2023-03-21T04:23:41;99066.09;;;8.17;93.29
4024;BME280;2026;51.002;13.668;2023-03-21T04:28:46;99069.28;;;8.12;91.78
4024;BME280;2026;51.002;13.668;2023-03-21T04:33:57;99059.69;;;8.19;91.25
4024;BME280;2026;51.002;13.668;2023-03-21T04:39:01;99058.44;;;8.15;91.30
4024;BME280;2026;51.002;13.668;2023-03-21T04:44:08;99065.47;;;8.14;91.87
4024;BME280;2026;51.002;13.668;2023-03-21T04:49:11;99064.69;;;8.14;91.66
4024;BME280;2026;51.002;13.668;2023-03-21T04:54:16;99065.44;;;8.01;92.69
4024;BME280;2026;51.002;13.668;2023-03-21T04:59:21;99060.22;;;8.08;91.76
4024;BME280;2026;51.002;13.668;2023-03-21T05:04:24;99072.69;;;8.06;92.51
4024;BME280;2026;51.002;13.668;2023-03-21T05:09:29;99061.47;;;8.12;92.06
4024;BME280;2026;51.002;13.668;2023-03-21T05:14:34;99059.81;;;8.11;92.97
4024;BME280;2026;51.002;13.668;2023-03-21T05:19:39;99066.88;;;8.17;92.02
4024;BME280;2026;51.002;13.668;2023-03-21T05:24:45;99068.28;;;8.13;92.51
4024;BME280;2026;51.002;13.668;2023-03-21T05:30:11;99067.53;;;8.19;93.08
4024;BME280;2026;51.002;13.668;2023-03-21T05:35:16;99070.78;;;8.41;94.53
4024;BME280;2026;51.002;13.668;2023-03-21T05:40:19;99073.16;;;8.23;93.05
4024;BME280;2026;51.002;13.668;2023-03-21T05:45:24;99065.94;;;8.32;92.44
4024;BME280;2026;51.002;13.668;2023-03-21T05:50:29;99068.72;;;8.30;92.48
4024;BME280;2026;51.002;13.668;2023-03-21T05:55:46;99066.13;;;8.30;92.91
4024;BME280;2026;51.002;13.668;2023-03-21T06:01:06;99061.53;;;8.32;92.57
4024;BME280;2026;51.002;13.668;2023-03-21T06:06:13;99061.31;;;8.34;93.11
4024;BME280;2026;51.002;13.668;2023-03-21T06:11:27;99069.78;;;8.43;92.49
4024;BME280;2026;51.002;13.668;2023-03-21T06:16:51;99081.47;;;8.47;92.39
4024;BME280;2026;51.002;13.668;2023-03-21T06:21:56;99082.47;;;8.52;92.35
4024;BME280;2026;51.002;13.668;2023-03-21T06:26:59;99082.81;;;8.29;92.04
4024;BME280;2026;51.002;13.668;2023-03-21T06:32:16;99075.25;;;8.61;92.53
4024;BME280;2026;51.002;13.668;2023-03-21T06:37:21;99093.78;;;8.73;91.61
4024;BME280;2026;51.002;13.668;2023-03-21T06:42:24;99089.34;;;8.67;91.24
4024;BME280;2026;51.002;13.668;2023-03-21T06:47:36;99093.78;;;8.73;91.95
4024;BME280;2026;51.002;13.668;2023-03-21T06:52:45;99100.00;;;8.65;91.11
4024;BME280;2026;51.002;13.668;2023-03-21T06:57:48;99090.38;;;8.79;91.50
4024;BME280;2026;51.002;13.668;2023-03-21T07:02:53;99093.81;;;8.87;90.19
4024;BME280;2026;51.002;13.668;2023-03-21T07:07:58;99097.44;;;9.13;90.23
4024;BME280;2026;51.002;13.668;2023-03-21T07:13:03;99105.09;;;9.21;90.08
4024;BME280;2026;51.002;13.668;2023-03-21T07:18:16;99099.06;;;9.41;90.00
4024;BME280;2026;51.002;13.668;2023-03-21T07:23:21;99097.44;;;9.46;88.40
4024;BME280;2026;51.002;13.668;2023-03-21T07:28:24;99094.63;;;9.34;90.16
4024;BME280;2026;51.002;13.668;2023-03-21T07:33:29;99098.66;;;9.30;90.14
4024;BME280;2026;51.002;13.668;2023-03-21T07:38:34;99106.94;;;9.54;90.40
4024;BME280;2026;51.002;13.668;2023-03-21T07:43:37;99099.81;;;9.95;88.71
4024;BME280;2026;51.002;13.668;2023-03-21T07:48:45;99103.72;;;10.25;87.80
4024;BME280;2026;51.002;13.668;2023-03-21T07:53:47;99100.72;;;10.60;86.37
4024;BME280;2026;51.002;13.668;2023-03-21T07:58:50;99097.31;;;10.59;86.25
4024;BME280;2026;51.002;13.668;2023-03-21T08:03:55;99101.41;;;10.49;86.42
4024;BME280;2026;51.002;13.668;2023-03-21T08:08:58;99103.78;;;10.57;86.80
4024;BME280;2026;51.002;13.668;2023-03-21T08:14:01;99097.50;;;10.90;86.45
4024;BME280;2026;51.002;13.668;2023-03-21T08:19:05;99093.19;;;11.53;85.54
4024;BME280;2026;51.002;13.668;2023-03-21T08:24:08;99106.19;;;11.41;82.97
4024;BME280;2026;51.002;13.668;2023-03-21T08:29:12;99099.97;;;10.00;85.73
4024;BME280;2026;51.002;13.668;2023-03-21T08:34:17;99100.34;;;10.56;84.00
4024;BME280;2026;51.002;13.668;2023-03-21T08:39:20;99106.75;;;10.28;86.26
4024;BME280;2026;51.002;13.668;2023-03-21T08:44:24;99095.41;;;10.73;85.49
4024;BME280;2026;51.002;13.668;2023-03-21T08:49:29;99104.13;;;11.25;84.97
4024;BME280;2026;51.002;13.668;2023-03-21T08:54:32;99093.94;;;11.61;84.15
4024;BME280;2026;51.002;13.668;2023-03-21T08:59:35;99086.13;;;12.29;81.25
4024;BME280;2026;51.002;13.668;2023-03-21T09:04:39;99087.97;;;12.09;80.82
4024;BME280;2026;51.002;13.668;2023-03-21T09:09:42;99086.16;;;12.71;79.59
4024;BME280;2026;51.002;13.668;2023-03-21T09:14:51;99098.41;;;13.08;75.86
4024;BME280;2026;51.002;13.668;2023-03-21T09:19:55;99096.63;;;13.02;76.37
4024;BME280;2026;51.002;13.668;2023-03-21T09:25:01;99091.91;;;13.34;76.66
4024;BME280;2026;51.002;13.668;2023-03-21T09:30:09;99085.38;;;13.37;74.99
4024;BME280;2026;51.002;13.668;2023-03-21T09:35:13;99084.03;;;13.99;75.33
4024;BME280;2026;51.002;13.668;2023-03-21T09:40:19;99081.41;;;12.00;78.83
4024;BME280;2026;51.002;13.668;2023-03-21T09:45:31;99081.81;;;12.34;78.04
4024;BME280;2026;51.002;13.668;2023-03-21T09:50:40;99084.22;;;12.66;77.79
4024;BME280;2026;51.002;13.668;2023-03-21T09:55:44;99073.47;;;13.11;77.89
4024;BME280;2026;51.002;13.668;2023-03-21T10:00:49;99081.31;;;12.99;77.47
4024;BME280;2026;51.002;13.668;2023-03-21T10:05:59;99071.41;;;12.70;77.93
4024;BME280;2026;51.002;13.668;2023-03-21T10:11:10;99055.94;;;13.16;76.79
4024;BME280;2026;51.002;13.668;2023-03-21T10:16:17;99056.19;;;13.51;74.81
4024;BME280;2026;51.002;13.668;2023-03-21T10:21:24;99055.31;;;13.86;74.82
4024;BME280;2026;51.002;13.668;2023-03-21T10:26:49;99049.59;;;13.77;74.29
4024;BME280;2026;51.002;13.668;2023-03-21T10:31:53;99048.91;;;12.98;76.33
4024;BME280;2026;51.002;13.668;2023-03-21T10:36:58;99048.25;;;13.27;75.99
4024;BME280;2026;51.002;13.668;2023-03-21T10:42:02;99039.13;;;13.29;76.19
4024;BME280;2026;51.002;13.668;2023-03-21T10:47:07;99042.94;;;12.79;77.54
4024;BME280;2026;51.002;13.668;2023-03-21T10:52:14;99036.59;;;13.46;75.13
4024;BME280;2026;51.002;13.668;2023-03-21T10:57:20;99033.59;;;13.67;75.01
4024;BME280;2026;51.002;13.668;2023-03-21T11:02:30;99029.47;;;13.59;74.98
4024;BME280;2026;51.002;13.668;2023-03-21T11:07:36;99017.81;;;13.43;74.42
4024;BME280;2026;51.002;13.668;2023-03-21T11:12:41;99024.22;;;13.47;75.28
4024;BME280;2026;51.002;13.668;2023-03-21T11:17:48;99023.31;;;13.05;75.96
4024;BME280;2026;51.002;13.668;2023-03-21T11:22:54;99017.03;;;13.83;74.24
4024;BME280;2026;51.002;13.668;2023-03-21T11:27:58;99010.91;;;14.07;73.92
4024;BME280;2026;51.002;13.668;2023-03-21T11:33:06;99012.94;;;14.05;73.05
4024;BME280;2026;51.002;13.668;2023-03-21T11:38:23;98999.97;;;13.33;74.27
4024;BME280;2026;51.002;13.668;2023-03-21T11:43:30;98996.34;;;13.63;74.32
4024;BME280;2026;51.002;13.668;2023-03-21T11:48:38;98991.59;;;14.47;72.11
4024;BME280;2026;51.002;13.668;2023-03-21T11:53:45;98984.09;;;15.12;72.82
4024;BME280;2026;51.002;13.668;2023-03-21T11:59:01;98982.34;;;14.33;72.87
4024;BME280;2026;51.002;13.668;2023-03-21T12:04:19;98969.75;;;13.12;76.36
4024;BME280;2026;51.002;13.668;2023-03-21T12:09:33;98966.97;;;13.54;75.38
4024;BME280;2026;51.002;13.668;2023-03-21T12:14:46;98966.69;;;14.43;74.08
4024;BME280;2026;51.002;13.668;2023-03-21T12:20:04;98958.72;;;14.72;72.06
4024;BME280;2026;51.002;13.668;2023-03-21T12:25:15;98950.66;;;15.40;70.65
4024;BME280;2026;51.002;13.668;2023-03-21T12:30:44;98943.19;;;14.93;71.09
4024;BME280;2026;51.002;13.668;2023-03-21T12:35:57;98940.09;;;15.40;71.05
4024;BME280;2026;51.002;13.668;2023-03-21T12:41:21;98935.34;;;15.43;70.65
4024;BME280;2026;51.002;13.668;2023-03-21T12:46:27;98928.19;;;14.59;72.67
4024;BME280;2026;51.002;13.668;2023-03-21T12:51:33;98923.22;;;14.63;72.89
4024;BME280;2026;51.002;13.668;2023-03-21T12:56:44;98911.31;;;14.60;72.42
4024;BME280;2026;51.002;13.668;2023-03-21T13:01:50;98912.53;;;15.31;71.22
4024;BME280;2026;51.002;13.668;2023-03-21T13:06:58;98908.31;;;15.80;69.00
4024;BME280;2026;51.002;13.668;2023-03-21T13:12:12;98901.75;;;15.38;69.06
4024;BME280;2026;51.002;13.668;2023-03-21T13:17:23;98887.25;;;14.96;70.23
4024;BME280;2026;51.002;13.668;2023-03-21T13:22:29;98890.00;;;15.51;69.92
4024;BME280;2026;51.002;13.668;2023-03-21T13:27:35;98876.63;;;15.58;68.94
4024;BME280;2026;51.002;13.668;2023-03-21T13:32:41;98878.25;;;15.64;68.49
4024;BME280;2026;51.002;13.668;2023-03-21T13:37:49;98870.00;;;15.10;69.59
4024;BME280;2026;51.002;13.668;2023-03-21T13:42:58;98870.63;;;15.18;69.43
4024;BME280;2026;51.002;13.668;2023-03-21T13:48:03;98863.44;;;15.85;70.80
4024;BME280;2026;51.002;13.668;2023-03-21T13:53:29;98863.09;;;15.26;69.04
4024;BME280;2026;51.002;13.668;2023-03-21T13:58:36;98855.44;;;15.80;68.15
4024;BME280;2026;51.002;13.668;2023-03-21T14:03:41;98854.59;;;16.07;67.09
4024;BME280;2026;51.002;13.668;2023-03-21T14:08:46;98850.03;;;16.35;66.73
4024;BME280;2026;51.002;13.668;2023-03-21T14:13:52;98834.41;;;15.96;67.47
4024;BME280;2026;51.002;13.668;2023-03-21T14:18:59;98839.66;;;16.23;67.06
4024;BME280;2026;51.002;13.668;2023-03-21T14:24:04;98823.25;;;16.21;66.63
4024;BME280;2026;51.002;13.668;2023-03-21T14:29:16;98816.31;;;15.82;68.26
4024;BME280;2026;51.002;13.668;2023-03-21T14:34:28;98812.91;;;15.87;68.89
4024;BME280;2026;51.002;13.668;2023-03-21T14:39:32;98806.50;;;16.10;69.39
4024;BME280;2026;51.002;13.668;2023-03-21T14:44:38;98803.16;;;16.25;68.91
4024;BME280;2026;51.002;13.668;2023-03-21T14:49:56;98798.84;;;16.14;70.86
4024;BME280;2026;51.002;13.668;2023-03-21T14:55:02;98799.16;;;16.22;70.05
4024;BME280;2026;51.002;13.668;2023-03-21T15:00:16;98790.13;;;16.13;70.42
4024;BME280;2026;51.002;13.668;2023-03-21T15:05:24;98786.94;;;16.11;70.93
4024;BME280;2026;51.002;13.668;2023-03-21T15:10:29;98785.91;;;15.79;72.44
4024;BME280;2026;51.002;13.668;2023-03-21T15:15:34;98784.50;;;15.72;72.38
4024;BME280;2026;51.002;13.668;2023-03-21T15:20:38;98781.69;;;15.51;73.12
4024;BME280;2026;51.002;13.668;2023-03-21T15:25:42;98777.03;;;15.63;73.46
4024;BME280;2026;51.002;13.668;2023-03-21T15:30:51;98772.50;;;15.59;73.17
4024;BME280;2026;51.002;13.668;2023-03-21T15:35:56;98772.47;;;15.53;73.23
4024;BME280;2026;51.002;13.668;2023-03-21T15:41:16;98774.72;;;15.39;73.09
4024;BME280;2026;51.002;13.668;2023-03-21T15:46:42;98764.75;;;15.47;72.84
4024;BME280;2026;51.002;13.668;2023-03-21T15:51:48;98761.50;;;15.39;72.82
4024;BME280;2026;51.002;13.668;2023-03-21T15:56:55;98768.28;;;15.30;73.82
4024;BME280;2026;51.002;13.668;2023-03-21T16:02:03;98764.78;;;15.24;73.90
4024;BME280;2026;51.002;13.668;2023-03-21T16:07:14;98759.81;;;15.28;73.75
4024;BME280;2026;51.002;13.668;2023-03-21T16:12:17;98753.03;;;15.10;74.54
4024;BME280;2026;51.002;13.668;2023-03-21T16:17:31;98757.00;;;14.85;75.40
4024;BME280;2026;51.002;13.668;2023-03-21T16:22:34;98757.19;;;14.78;75.62
4024;BME280;2026;51.002;13.668;2023-03-21T16:27:38;98754.69;;;14.66;76.62
4024;BME280;2026;51.002;13.668;2023-03-21T16:32:42;98760.44;;;14.63;77.08
4024;BME280;2026;51.002;13.668;2023-03-21T16:37:45;98758.53;;;14.58;77.86
4024;BME280;2026;51.002;13.668;2023-03-21T16:42:48;98748.97;;;14.52;78.55
4024;BME280;2026;51.002;13.668;2023-03-21T16:47:53;98752.31;;;14.48;78.81
4024;BME280;2026;51.002;13.668;2023-03-21T16:52:57;98758.41;;;14.31;79.17
4024;BME280;2026;51.002;13.668;2023-03-21T16:58:00;98748.44;;;14.33;78.90
4024;BME280;2026;51.002;13.668;2023-03-21T17:03:12;98757.63;;;14.30;79.26
4024;BME280;2026;51.002;13.668;2023-03-21T17:08:17;98756.44;;;14.21;79.84
4024;BME280;2026;51.002;13.668;2023-03-21T17:13:21;98756.69;;;14.20;80.05
4024;BME280;2026;51.002;13.668;2023-03-21T17:18:25;98752.88;;;13.93;81.00
4024;BME280;2026;51.002;13.668;2023-03-21T17:23:28;98747.63;;;13.93;81.55
4024;BME280;2026;51.002;13.668;2023-03-21T17:28:31;98744.75;;;13.78;81.88
4024;BME280;2026;51.002;13.668;2023-03-21T17:33:36;98745.16;;;13.86;81.36
4024;BME280;2026;51.002;13.668;2023-03-21T17:38:39;98746.75;;;13.70;82.25
4024;BME280;2026;51.002;13.668;2023-03-21T17:43:42;98748.19;;;13.61;82.20
4024;BME280;2026;51.002;13.668;2023-03-21T17:48:47;98744.25;;;13.46;82.77
4024;BME280;2026;51.002;13.668;2023-03-21T17:53:50;98743.06;;;13.37;83.33
4024;BME280;2026;51.002;13.668;2023-03-21T17:58:53;98734.22;;;13.43;82.73
4024;BME280;2026;51.002;13.668;2023-03-21T18:03:58;98729.41;;;13.40;83.47
4024;BME280;2026;51.002;13.668;2023-03-21T18:09:04;98735.81;;;13.44;82.82
4024;BME280;2026;51.002;13.668;2023-03-21T18:14:12;98729.69;;;13.27;83.80
4024;BME280;2026;51.002;13.668;2023-03-21T18:19:21;98726.38;;;13.31;84.00
4024;BME280;2026;51.002;13.668;2023-03-21T18:24:24;98731.88;;;13.30;84.00
4024;BME280;2026;51.002;13.668;2023-03-21T18:29:27;98733.28;;;13.20;84.16
4024;BME280;2026;51.002;13.668;2023-03-21T18:34:52;98731.94;;;13.18;84.46
4024;BME280;2026;51.002;13.668;2023-03-21T18:39:55;98731.59;;;13.14;84.42
4024;BME280;2026;51.002;13.668;2023-03-21T18:44:58;98738.31;;;12.93;85.65
4024;BME280;2026;51.002;13.668;2023-03-21T18:50:04;98734.31;;;12.90;85.48
4024;BME280;2026;51.002;13.668;2023-03-21T18:55:15;98730.34;;;12.76;85.57
4024;BME280;2026;51.002;13.668;2023-03-21T19:00:19;98734.19;;;12.85;85.08
4024;BME280;2026;51.002;13.668;2023-03-21T19:05:25;98737.56;;;12.69;85.34
4024;BME280;2026;51.002;13.668;2023-03-21T19:10:28;98737.59;;;12.57;85.45
4024;BME280;2026;51.002;13.668;2023-03-21T19:15:31;98739.56;;;12.37;85.64
4024;BME280;2026;51.002;13.668;2023-03-21T19:20:36;98738.22;;;12.23;86.46
4024;BME280;2026;51.002;13.668;2023-03-21T19:25:40;98741.19;;;12.15;86.12
4024;BME280;2026;51.002;13.668;2023-03-21T19:30:44;98747.81;;;12.05;86.81
4024;BME280;2026;51.002;13.668;2023-03-21T19:35:52;98747.69;;;12.00;86.38
4024;BME280;2026;51.002;13.668;2023-03-21T19:41:13;98743.94;;;11.96;86.62
4024;BME280;2026;51.002;13.668;2023-03-21T19:46:17;98740.72;;;11.94;86.17
4024;BME280;2026;51.002;13.668;2023-03-21T19:51:24;98742.78;;;12.16;84.52
4024;BME280;2026;51.002;13.668;2023-03-21T19:56:31;98745.19;;;12.17;84.47
4024;BME280;2026;51.002;13.668;2023-03-21T20:01:35;98748.84;;;12.28;83.80
4024;BME280;2026;51.002;13.668;2023-03-21T20:06:40;98736.06;;;12.20;83.86
4024;BME280;2026;51.002;13.668;2023-03-21T20:11:43;98744.50;;;12.22;82.51
4024;BME280;2026;51.002;13.668;2023-03-21T20:16:46;98739.38;;;12.27;83.03
4024;BME280;2026;51.002;13.668;2023-03-21T20:21:50;98743.25;;;12.24;83.62
4024;BME280;2026;51.002;13.668;2023-03-21T20:27:01;98738.34;;;12.16;83.99
4024;BME280;2026;51.002;13.668;2023-03-21T20:32:05;98741.75;;;12.05;84.60
4024;BME280;2026;51.002;13.668;2023-03-21T20:37:09;98747.69;;;12.00;85.05
4024;BME280;2026;51.002;13.668;2023-03-21T20:42:12;98743.03;;;12.14;83.54
4024;BME280;2026;51.002;13.668;2023-03-21T20:47:15;98739.47;;;12.08;84.68
4024;BME280;2026;51.002;13.668;2023-03-21T20:52:20;98742.22;;;12.02;85.16
4024;BME280;2026;51.002;13.668;2023-03-21T20:57:43;98744.97;;;12.19;83.08
4024;BME280;2026;51.002;13.668;2023-03-21T21:02:49;98741.63;;;12.35;80.89
4024;BME280;2026;51.002;13.668;2023-03-21T21:07:54;98747.22;;;12.51;79.54
4024;BME280;2026;51.002;13.668;2023-03-21T21:12:57;98750.19;;;12.55;78.20
4024;BME280;2026;51.002;13.668;2023-03-21T21:18:00;98749.38;;;12.54;78.45
4024;BME280;2026;51.002;13.668;2023-03-21T21:23:09;98757.59;;;12.58;78.63
4024;BME280;2026;51.002;13.668;2023-03-21T21:28:14;98756.13;;;12.62;77.75
4024;BME280;2026;51.002;13.668;2023-03-21T21:33:18;98755.66;;;12.53;78.09
4024;BME280;2026;51.002;13.668;2023-03-21T21:38:23;98759.81;;;12.49;78.99
4024;BME280;2026;51.002;13.668;2023-03-21T21:43:27;98770.22;;;12.20;80.97
4024;BME280;2026;51.002;13.668;2023-03-21T21:48:30;98769.88;;;12.28;80.93
4024;BME280;2026;51.002;13.668;2023-03-21T21:53:35;98767.94;;;12.35;80.61
4024;BME280;2026;51.002;13.668;2023-03-21T21:58:39;98773.19;;;12.35;80.61
4024;BME280;2026;51.002;13.668;2023-03-21T22:03:47;98780.72;;;12.32;82.40
4024;BME280;2026;51.002;13.668;2023-03-21T22:08:53;98776.03;;;12.34;83.22
4024;BME280;2026;51.002;13.668;2023-03-21T22:13:57;98777.75;;;12.28;84.15
4024;BME280;2026;51.002;13.668;2023-03-21T22:19:00;98781.66;;;12.14;86.77
4024;BME280;2026;51.002;13.668;2023-03-21T22:24:05;98776.94;;;12.16;88.30
4024;BME280;2026;51.002;13.668;2023-03-21T22:29:08;98778.78;;;12.03;89.10
4024;BME280;2026;51.002;13.668;2023-03-21T22:34:11;98783.00;;;12.04;88.85
4024;BME280;2026;51.002;13.668;2023-03-21T22:39:16;98784.03;;;11.91;90.35
4024;BME280;2026;51.002;13.668;2023-03-21T22:44:19;98778.44;;;12.00;90.20
4024;BME280;2026;51.002;13.668;2023-03-21T22:49:22;98772.22;;;11.70;92.02
4024;BME280;2026;51.002;13.668;2023-03-21T22:54:26;98776.00;;;11.74;92.29
4024;BME280;2026;51.002;13.668;2023-03-21T22:59:29;98775.09;;;11.68;93.36
4024;BME280;2026;51.002;13.668;2023-03-21T23:04:33;98770.75;;;11.62;94.04
4024;BME280;2026;51.002;13.668;2023-03-21T23:09:37;98769.84;;;11.38;95.10
4024;BME280;2026;51.002;13.668;2023-03-21T23:14:40;98759.28;;;11.45;94.74
4024;BME280;2026;51.002;13.668;2023-03-21T23:19:43;98750.63;;;11.25;95.50
4024;BME280;2026;51.002;13.668;2023-03-21T23:24:47;98758.63;;;11.31;95.95
4024;BME280;2026;51.002;13.668;2023-03-21T23:29:51;98749.44;;;11.40;95.44
4024;BME280;2026;51.002;13.668;2023-03-21T23:34:54;98740.31;;;11.12;96.67
4024;BME280;2026;51.002;13.668;2023-03-21T23:39:59;98741.50;;;11.16;96.75
4024;BME280;2026;51.002;13.668;2023-03-21T23:45:02;98745.44;;;11.37;96.28
4024;BME280;2026;51.002;13.668;2023-03-21T23:50:06;98759.13;;;11.39;96.22
4024;BME280;2026;51.002;13.668;2023-03-21T23:55:11;98761.66;;;11.46;96.15
